sensor_id;sensor_type;location;lat;lon;timestamp;temperature;humidity
3648;DHT22;1840;48.892;15.312;2024-02-15T00:00:45;5.70;98.60
3648;DHT22;1840;48.892;15.312;2024-02-15T00:03:14;5.50;99.00
3648;DHT22;1840;48.892;15.312;2024-02-15T00:05:44;5.30;99.30
3648;DHT22;1840;48.892;15.312;2024-02-15T00:08:13;5.20;99.60
3648;DHT22;1840;48.892;15.312;2024-02-15T00:10:42;5.30;99.60
3648;DHT22;1840;48.892;15.312;2024-02-15T00:13:13;5.10;99.50
3648;DHT22;1840;48.892;15.312;2024-02-15T00:15:43;5.10;99.80
3648;DHT22;1840;48.892;15.312;2024-02-15T00:18:15;5.00;99.90
3648;DHT22;1840;48.892;15.312;2024-02-15T00:20:44;5.00;99.80
3648;DHT22;1840;48.892;15.312;2024-02-15T00:23:13;5.00;99.80
3648;DHT22;1840;48.892;15.312;2024-02-15T00:25:43;5.10;99.70
3648;DHT22;1840;48.892;15.312;2024-02-15T00:28:12;5.30;99.30
3648;DHT22;1840;48.892;15.312;2024-02-15T00:30:40;5.30;99.10
3648;DHT22;1840;48.892;15.312;2024-02-15T00:33:11;5.20;99.10
3648;DHT22;1840;48.892;15.312;2024-02-15T00:35:40;5.20;99.00
3648;DHT22;1840;48.892;15.312;2024-02-15T00:38:09;5.30;98.70
3648;DHT22;1840;48.892;15.312;2024-02-15T00:40:37;5.20;98.70
3648;DHT22;1840;48.892;15.312;2024-02-15T00:43:07;5.00;98.70
3648;DHT22;1840;48.892;15.312;2024-02-15T00:45:36;4.80;99.50
3648;DHT22;1840;48.892;15.312;2024-02-15T00:48:05;4.70;99.70
3648;DHT22;1840;48.892;15.312;2024-02-15T00:50:35;4.70;99.90
3648;DHT22;1840;48.892;15.312;2024-02-15T00:53:04;4.70;99.90
3648;DHT22;1840;48.892;15.312;2024-02-15T00:55:33;4.80;99.90
3648;DHT22;1840;48.892;15.312;2024-02-15T00:58:01;4.80;99.90
3648;DHT22;1840;48.892;15.312;2024-02-15T01:00:29;5.00;99.90
3648;DHT22;1840;48.892;15.312;2024-02-15T01:02:58;4.90;99.90
3648;DHT22;1840;48.892;15.312;2024-02-15T01:05:27;5.00;99.90
3648;DHT22;1840;48.892;15.312;2024-02-15T01:07:57;5.00;99.90
3648;DHT22;1840;48.892;15.312;2024-02-15T01:10:25;5.00;99.90
3648;DHT22;1840;48.892;15.312;2024-02-15T01:12:54;5.00;99.90
3648;DHT22;1840;48.892;15.312;2024-02-15T01:15:23;5.00;99.90
3648;DHT22;1840;48.892;15.312;2024-02-15T01:17:51;5.00;99.90
3648;DHT22;1840;48.892;15.312;2024-02-15T01:20:20;5.00;99.90
3648;DHT22;1840;48.892;15.312;2024-02-15T01:22:48;5.00;99.90
3648;DHT22;1840;48.892;15.312;2024-02-15T01:25:18;5.00;99.90
3648;DHT22;1840;48.892;15.312;2024-02-15T01:27:46;5.10;99.80
3648;DHT22;1840;48.892;15.312;2024-02-15T01:30:16;5.00;99.90
3648;DHT22;1840;48.892;15.312;2024-02-15T01:32:44;5.00;99.90
3648;DHT22;1840;48.892;15.312;2024-02-15T01:35:13;5.00;99.90
3648;DHT22;1840;48.892;15.312;2024-02-15T01:37:41;4.90;99.90
3648;DHT22;1840;48.892;15.312;2024-02-15T01:40:10;4.90;99.90
3648;DHT22;1840;48.892;15.312;2024-02-15T01:42:41;5.00;99.90
3648;DHT22;1840;48.892;15.312;2024-02-15T01:45:10;5.00;99.90
3648;DHT22;1840;48.892;15.312;2024-02-15T01:47:39;5.10;99.90
3648;DHT22;1840;48.892;15.312;2024-02-15T01:50:10;5.30;99.90
3648;DHT22;1840;48.892;15.312;2024-02-15T01:52:39;5.30;99.90
3648;DHT22;1840;48.892;15.312;2024-02-15T01:55:17;5.30;99.90
3648;DHT22;1840;48.892;15.312;2024-02-15T01:57:48;5.30;99.90
3648;DHT22;1840;48.892;15.312;2024-02-15T02:00:18;5.20;99.90
3648;DHT22;1840;48.892;15.312;2024-02-15T02:02:46;5.20;99.90
3648;DHT22;1840;48.892;15.312;2024-02-15T02:05:16;5.30;99.90
3648;DHT22;1840;48.892;15.312;2024-02-15T02:07:44;5.50;99.90
3648;DHT22;1840;48.892;15.312;2024-02-15T02:10:13;5.50;99.90
3648;DHT22;1840;48.892;15.312;2024-02-15T02:12:43;5.50;99.90
3648;DHT22;1840;48.892;15.312;2024-02-15T02:15:13;5.50;99.90
3648;DHT22;1840;48.892;15.312;2024-02-15T02:17:42;5.50;99.90
3648;DHT22;1840;48.892;15.312;2024-02-15T02:20:11;5.40;99.90
3648;DHT22;1840;48.892;15.312;2024-02-15T02:22:41;5.30;99.90
3648;DHT22;1840;48.892;15.312;2024-02-15T02:25:14;5.30;99.90
3648;DHT22;1840;48.892;15.312;2024-02-15T02:27:42;5.40;99.90
3648;DHT22;1840;48.892;15.312;2024-02-15T02:30:15;5.50;99.90
3648;DHT22;1840;48.892;15.312;2024-02-15T02:32:46;5.60;99.90
3648;DHT22;1840;48.892;15.312;2024-02-15T02:35:14;5.80;99.90
3648;DHT22;1840;48.892;15.312;2024-02-15T02:37:43;5.70;99.90
3648;DHT22;1840;48.892;15.312;2024-02-15T02:40:13;5.50;99.90
3648;DHT22;1840;48.892;15.312;2024-02-15T02:42:52;5.30;99.90
3648;DHT22;1840;48.892;15.312;2024-02-15T02:45:23;5.20;99.90
3648;DHT22;1840;48.892;15.312;2024-02-15T02:47:52;5.40;99.90
3648;DHT22;1840;48.892;15.312;2024-02-15T02:50:21;5.50;99.90
3648;DHT22;1840;48.892;15.312;2024-02-15T02:52:51;5.50;99.90
3648;DHT22;1840;48.892;15.312;2024-02-15T02:55:22;5.50;99.90
3648;DHT22;1840;48.892;15.312;2024-02-15T02:57:51;5.40;99.90
3648;DHT22;1840;48.892;15.312;2024-02-15T03:00:22;5.50;99.90
3648;DHT22;1840;48.892;15.312;2024-02-15T03:02:50;5.40;99.90
3648;DHT22;1840;48.892;15.312;2024-02-15T03:05:19;5.40;99.90
3648;DHT22;1840;48.892;15.312;2024-02-15T03:07:48;5.40;99.90
3648;DHT22;1840;48.892;15.312;2024-02-15T03:10:19;5.40;99.90
3648;DHT22;1840;48.892;15.312;2024-02-15T03:12:49;5.30;99.90
3648;DHT22;1840;48.892;15.312;2024-02-15T03:15:17;5.10;99.90
3648;DHT22;1840;48.892;15.312;2024-02-15T03:17:47;5.10;99.90
3648;DHT22;1840;48.892;15.312;2024-02-15T03:20:16;5.20;99.90
3648;DHT22;1840;48.892;15.312;2024-02-15T03:22:53;5.20;99.90
3648;DHT22;1840;48.892;15.312;2024-02-15T03:25:22;5.20;99.90
3648;DHT22;1840;48.892;15.312;2024-02-15T03:27:54;5.00;99.90
3648;DHT22;1840;48.892;15.312;2024-02-15T03:30:25;5.10;99.90
3648;DHT22;1840;48.892;15.312;2024-02-15T03:32:53;5.10;99.90
3648;DHT22;1840;48.892;15.312;2024-02-15T03:35:24;5.00;99.90
3648;DHT22;1840;48.892;15.312;2024-02-15T03:37:53;5.00;99.90
3648;DHT22;1840;48.892;15.312;2024-02-15T03:40:22;5.00;99.90
3648;DHT22;1840;48.892;15.312;2024-02-15T03:42:55;5.10;99.90
3648;DHT22;1840;48.892;15.312;2024-02-15T03:45:24;5.10;99.90
3648;DHT22;1840;48.892;15.312;2024-02-15T03:47:54;5.10;99.90
3648;DHT22;1840;48.892;15.312;2024-02-15T03:50:23;5.20;99.90
3648;DHT22;1840;48.892;15.312;2024-02-15T03:52:51;5.30;99.90
3648;DHT22;1840;48.892;15.312;2024-02-15T03:55:20;5.10;99.90
3648;DHT22;1840;48.892;15.312;2024-02-15T03:57:49;5.20;99.90
3648;DHT22;1840;48.892;15.312;2024-02-15T04:00:19;5.30;99.90
3648;DHT22;1840;48.892;15.312;2024-02-15T04:02:49;5.30;99.90
3648;DHT22;1840;48.892;15.312;2024-02-15T04:05:18;5.20;99.90
3648;DHT22;1840;48.892;15.312;2024-02-15T04:07:49;5.20;99.90
3648;DHT22;1840;48.892;15.312;2024-02-15T04:10:17;5.10;99.90
3648;DHT22;1840;48.892;15.312;2024-02-15T04:12:45;5.00;99.90
3648;DHT22;1840;48.892;15.312;2024-02-15T04:15:15;4.80;99.90
3648;DHT22;1840;48.892;15.312;2024-02-15T04:17:46;4.80;99.90
3648;DHT22;1840;48.892;15.312;2024-02-15T04:20:16;4.80;99.90
3648;DHT22;1840;48.892;15.312;2024-02-15T04:22:45;5.00;99.90
3648;DHT22;1840;48.892;15.312;2024-02-15T04:25:14;5.10;99.90
3648;DHT22;1840;48.892;15.312;2024-02-15T04:27:45;5.20;99.90
3648;DHT22;1840;48.892;15.312;2024-02-15T04:30:14;5.30;99.90
3648;DHT22;1840;48.892;15.312;2024-02-15T04:32:45;5.20;99.90
3648;DHT22;1840;48.892;15.312;2024-02-15T04:35:14;5.20;99.90
3648;DHT22;1840;48.892;15.312;2024-02-15T04:37:43;5.30;99.90
3648;DHT22;1840;48.892;15.312;2024-02-15T04:40:13;5.30;99.90
3648;DHT22;1840;48.892;15.312;2024-02-15T04:42:42;5.10;99.90
3648;DHT22;1840;48.892;15.312;2024-02-15T04:45:13;5.00;99.90
3648;DHT22;1840;48.892;15.312;2024-02-15T04:47:43;5.10;99.90
3648;DHT22;1840;48.892;15.312;2024-02-15T04:50:16;5.30;99.90
3648;DHT22;1840;48.892;15.312;2024-02-15T04:52:45;5.20;99.90
3648;DHT22;1840;48.892;15.312;2024-02-15T04:55:17;5.20;99.90
3648;DHT22;1840;48.892;15.312;2024-02-15T04:57:45;5.10;99.90
3648;DHT22;1840;48.892;15.312;2024-02-15T05:00:16;5.10;99.90
3648;DHT22;1840;48.892;15.312;2024-02-15T05:02:48;5.20;99.90
3648;DHT22;1840;48.892;15.312;2024-02-15T05:05:19;5.20;99.90
3648;DHT22;1840;48.892;15.312;2024-02-15T05:07:49;5.20;99.90
3648;DHT22;1840;48.892;15.312;2024-02-15T05:10:17;5.30;99.90
3648;DHT22;1840;48.892;15.312;2024-02-15T05:12:46;5.40;99.90
3648;DHT22;1840;48.892;15.312;2024-02-15T05:15:16;5.40;99.90
3648;DHT22;1840;48.892;15.312;2024-02-15T05:17:46;5.30;99.90
3648;DHT22;1840;48.892;15.312;2024-02-15T05:20:15;5.30;99.90
3648;DHT22;1840;48.892;15.312;2024-02-15T05:22:45;5.20;99.90
3648;DHT22;1840;48.892;15.312;2024-02-15T05:25:17;5.30;99.90
3648;DHT22;1840;48.892;15.312;2024-02-15T05:27:52;5.20;99.90
3648;DHT22;1840;48.892;15.312;2024-02-15T05:30:24;5.30;99.90
3648;DHT22;1840;48.892;15.312;2024-02-15T05:32:54;5.30;99.90
3648;DHT22;1840;48.892;15.312;2024-02-15T05:35:23;5.40;99.90
3648;DHT22;1840;48.892;15.312;2024-02-15T05:37:55;5.40;99.90
3648;DHT22;1840;48.892;15.312;2024-02-15T05:40:24;5.30;99.90
3648;DHT22;1840;48.892;15.312;2024-02-15T05:42:55;5.30;99.90
3648;DHT22;1840;48.892;15.312;2024-02-15T05:45:30;5.30;99.90
3648;DHT22;1840;48.892;15.312;2024-02-15T05:48:00;5.30;99.90
3648;DHT22;1840;48.892;15.312;2024-02-15T05:50:29;5.30;99.90
3648;DHT22;1840;48.892;15.312;2024-02-15T05:53:00;5.30;99.90
3648;DHT22;1840;48.892;15.312;2024-02-15T05:55:29;5.30;99.90
3648;DHT22;1840;48.892;15.312;2024-02-15T05:58:01;5.30;99.90
3648;DHT22;1840;48.892;15.312;2024-02-15T06:00:31;5.40;99.90
3648;DHT22;1840;48.892;15.312;2024-02-15T06:03:01;5.50;99.90
3648;DHT22;1840;48.892;15.312;2024-02-15T06:05:31;5.50;99.90
3648;DHT22;1840;48.892;15.312;2024-02-15T06:08:01;5.60;99.90
3648;DHT22;1840;48.892;15.312;2024-02-15T06:10:30;5.50;99.90
3648;DHT22;1840;48.892;15.312;2024-02-15T06:12:58;5.50;99.90
3648;DHT22;1840;48.892;15.312;2024-02-15T06:15:27;5.60;99.90
3648;DHT22;1840;48.892;15.312;2024-02-15T06:17:55;5.50;99.90
3648;DHT22;1840;48.892;15.312;2024-02-15T06:20:24;5.60;99.90
3648;DHT22;1840;48.892;15.312;2024-02-15T06:22:56;5.60;99.90
3648;DHT22;1840;48.892;15.312;2024-02-15T06:25:26;5.50;99.90
3648;DHT22;1840;48.892;15.312;2024-02-15T06:27:54;5.60;99.90
3648;DHT22;1840;48.892;15.312;2024-02-15T06:30:28;5.60;99.90
3648;DHT22;1840;48.892;15.312;2024-02-15T06:33:15;5.70;99.90
3648;DHT22;1840;48.892;15.312;2024-02-15T06:36:05;5.70;99.90
3648;DHT22;1840;48.892;15.312;2024-02-15T06:38:51;5.70;99.90
3648;DHT22;1840;48.892;15.312;2024-02-15T06:41:35;5.70;99.90
3648;DHT22;1840;48.892;15.312;2024-02-15T06:44:03;5.70;99.90
3648;DHT22;1840;48.892;15.312;2024-02-15T06:46:33;5.60;99.90
3648;DHT22;1840;48.892;15.312;2024-02-15T06:49:01;5.60;99.90
3648;DHT22;1840;48.892;15.312;2024-02-15T06:51:32;5.70;99.90
3648;DHT22;1840;48.892;15.312;2024-02-15T06:54:01;5.70;99.90
3648;DHT22;1840;48.892;15.312;2024-02-15T06:56:30;5.60;99.90
3648;DHT22;1840;48.892;15.312;2024-02-15T06:59:00;5.60;99.90
3648;DHT22;1840;48.892;15.312;2024-02-15T07:01:30;5.70;99.90
3648;DHT22;1840;48.892;15.312;2024-02-15T07:04:01;5.80;99.90
3648;DHT22;1840;48.892;15.312;2024-02-15T07:06:30;5.80;99.90
3648;DHT22;1840;48.892;15.312;2024-02-15T07:08:59;5.70;99.90
3648;DHT22;1840;48.892;15.312;2024-02-15T07:11:28;5.70;99.90
3648;DHT22;1840;48.892;15.312;2024-02-15T07:13:57;5.80;99.90
3648;DHT22;1840;48.892;15.312;2024-02-15T07:16:27;5.80;99.90
3648;DHT22;1840;48.892;15.312;2024-02-15T07:18:56;5.90;99.90
3648;DHT22;1840;48.892;15.312;2024-02-15T07:21:25;5.90;99.90
3648;DHT22;1840;48.892;15.312;2024-02-15T07:23:54;5.90;99.90
3648;DHT22;1840;48.892;15.312;2024-02-15T07:26:24;5.90;99.90
3648;DHT22;1840;48.892;15.312;2024-02-15T07:28:53;6.00;99.90
3648;DHT22;1840;48.892;15.312;2024-02-15T07:31:27;6.10;99.90
3648;DHT22;1840;48.892;15.312;2024-02-15T07:33:57;6.20;99.90
3648;DHT22;1840;48.892;15.312;2024-02-15T07:36:26;6.10;99.90
3648;DHT22;1840;48.892;15.312;2024-02-15T07:38:55;6.10;99.90
3648;DHT22;1840;48.892;15.312;2024-02-15T07:41:29;6.20;99.90
3648;DHT22;1840;48.892;15.312;2024-02-15T07:44:00;6.30;99.90
3648;DHT22;1840;48.892;15.312;2024-02-15T07:46:29;6.40;99.90
3648;DHT22;1840;48.892;15.312;2024-02-15T07:48:59;6.40;99.90
3648;DHT22;1840;48.892;15.312;2024-02-15T07:51:29;6.50;99.90
3648;DHT22;1840;48.892;15.312;2024-02-15T07:53:58;6.60;99.90
3648;DHT22;1840;48.892;15.312;2024-02-15T07:56:34;6.60;99.90
3648;DHT22;1840;48.892;15.312;2024-02-15T07:59:03;6.70;99.90
3648;DHT22;1840;48.892;15.312;2024-02-15T08:01:31;6.70;99.90
3648;DHT22;1840;48.892;15.312;2024-02-15T08:04:01;6.80;99.90
3648;DHT22;1840;48.892;15.312;2024-02-15T08:06:30;7.00;99.90
3648;DHT22;1840;48.892;15.312;2024-02-15T08:09:00;6.90;99.90
3648;DHT22;1840;48.892;15.312;2024-02-15T08:11:32;6.90;99.90
3648;DHT22;1840;48.892;15.312;2024-02-15T08:14:00;7.00;99.90
3648;DHT22;1840;48.892;15.312;2024-02-15T08:16:29;7.00;99.90
3648;DHT22;1840;48.892;15.312;2024-02-15T08:18:59;7.10;99.90
3648;DHT22;1840;48.892;15.312;2024-02-15T08:21:31;7.20;99.90
3648;DHT22;1840;48.892;15.312;2024-02-15T08:24:01;7.20;99.90
3648;DHT22;1840;48.892;15.312;2024-02-15T08:26:33;7.40;99.90
3648;DHT22;1840;48.892;15.312;2024-02-15T08:29:05;7.70;99.90
3648;DHT22;1840;48.892;15.312;2024-02-15T08:31:34;7.90;99.90
3648;DHT22;1840;48.892;15.312;2024-02-15T08:34:03;8.00;99.90
3648;DHT22;1840;48.892;15.312;2024-02-15T08:36:35;8.00;99.90
3648;DHT22;1840;48.892;15.312;2024-02-15T08:39:03;8.30;99.90
3648;DHT22;1840;48.892;15.312;2024-02-15T08:41:32;8.50;99.90
3648;DHT22;1840;48.892;15.312;2024-02-15T08:44:01;8.60;99.90
3648;DHT22;1840;48.892;15.312;2024-02-15T08:46:36;8.90;99.90
3648;DHT22;1840;48.892;15.312;2024-02-15T08:49:04;9.00;99.90
3648;DHT22;1840;48.892;15.312;2024-02-15T08:51:35;9.30;99.90
3648;DHT22;1840;48.892;15.312;2024-02-15T08:54:04;9.30;99.90
3648;DHT22;1840;48.892;15.312;2024-02-15T08:56:35;9.30;99.90
3648;DHT22;1840;48.892;15.312;2024-02-15T08:59:04;9.30;99.90
3648;DHT22;1840;48.892;15.312;2024-02-15T09:01:32;9.40;99.90
3648;DHT22;1840;48.892;15.312;2024-02-15T09:04:01;9.60;99.90
3648;DHT22;1840;48.892;15.312;2024-02-15T09:06:30;9.90;99.90
3648;DHT22;1840;48.892;15.312;2024-02-15T09:09:00;9.80;99.90
3648;DHT22;1840;48.892;15.312;2024-02-15T09:11:31;9.80;99.90
3648;DHT22;1840;48.892;15.312;2024-02-15T09:14:02;9.90;99.90
3648;DHT22;1840;48.892;15.312;2024-02-15T09:16:30;10.10;99.90
3648;DHT22;1840;48.892;15.312;2024-02-15T09:19:00;10.10;99.90
3648;DHT22;1840;48.892;15.312;2024-02-15T09:21:30;10.50;99.90
3648;DHT22;1840;48.892;15.312;2024-02-15T09:24:01;10.60;99.90
3648;DHT22;1840;48.892;15.312;2024-02-15T09:26:30;10.50;99.90
3648;DHT22;1840;48.892;15.312;2024-02-15T09:28:59;10.50;99.90
3648;DHT22;1840;48.892;15.312;2024-02-15T09:31:29;10.60;99.90
3648;DHT22;1840;48.892;15.312;2024-02-15T09:33:58;10.60;99.90
3648;DHT22;1840;48.892;15.312;2024-02-15T09:36:27;10.60;99.90
3648;DHT22;1840;48.892;15.312;2024-02-15T09:38:56;10.80;99.90
3648;DHT22;1840;48.892;15.312;2024-02-15T09:41:27;10.70;99.90
3648;DHT22;1840;48.892;15.312;2024-02-15T09:43:58;10.60;99.90
3648;DHT22;1840;48.892;15.312;2024-02-15T09:46:26;10.60;99.90
3648;DHT22;1840;48.892;15.312;2024-02-15T09:48:58;10.90;99.90
3648;DHT22;1840;48.892;15.312;2024-02-15T09:51:28;10.90;99.90
3648;DHT22;1840;48.892;15.312;2024-02-15T09:53:58;10.90;99.90
3648;DHT22;1840;48.892;15.312;2024-02-15T09:56:31;10.70;99.90
3648;DHT22;1840;48.892;15.312;2024-02-15T09:59:00;10.70;99.90
3648;DHT22;1840;48.892;15.312;2024-02-15T10:01:31;10.80;99.90
3648;DHT22;1840;48.892;15.312;2024-02-15T10:04:02;11.20;99.90
3648;DHT22;1840;48.892;15.312;2024-02-15T10:06:34;11.20;99.90
3648;DHT22;1840;48.892;15.312;2024-02-15T10:09:25;11.60;99.90
3648;DHT22;1840;48.892;15.312;2024-02-15T10:11:56;11.90;99.30
3648;DHT22;1840;48.892;15.312;2024-02-15T10:14:26;12.60;98.80
3648;DHT22;1840;48.892;15.312;2024-02-15T10:16:56;13.40;97.90
3648;DHT22;1840;48.892;15.312;2024-02-15T10:19:24;13.50;97.90
3648;DHT22;1840;48.892;15.312;2024-02-15T10:21:54;13.90;96.40
3648;DHT22;1840;48.892;15.312;2024-02-15T10:24:24;14.20;95.30
3648;DHT22;1840;48.892;15.312;2024-02-15T10:27:02;14.20;96.20
3648;DHT22;1840;48.892;15.312;2024-02-15T10:29:31;14.30;95.40
3648;DHT22;1840;48.892;15.312;2024-02-15T10:32:01;14.30;94.90
3648;DHT22;1840;48.892;15.312;2024-02-15T10:34:32;13.60;95.20
3648;DHT22;1840;48.892;15.312;2024-02-15T10:37:11;13.20;96.00
3648;DHT22;1840;48.892;15.312;2024-02-15T10:39:40;13.10;96.00
3648;DHT22;1840;48.892;15.312;2024-02-15T10:42:10;13.00;95.40
3648;DHT22;1840;48.892;15.312;2024-02-15T10:44:39;12.70;95.40
3648;DHT22;1840;48.892;15.312;2024-02-15T10:47:08;12.70;95.90
3648;DHT22;1840;48.892;15.312;2024-02-15T10:49:37;13.10;95.60
3648;DHT22;1840;48.892;15.312;2024-02-15T10:52:07;13.60;95.30
3648;DHT22;1840;48.892;15.312;2024-02-15T10:54:41;14.10;94.60
3648;DHT22;1840;48.892;15.312;2024-02-15T10:57:12;14.30;94.50
3648;DHT22;1840;48.892;15.312;2024-02-15T10:59:47;13.80;94.20
3648;DHT22;1840;48.892;15.312;2024-02-15T11:02:28;13.10;94.30
3648;DHT22;1840;48.892;15.312;2024-02-15T11:05:02;12.50;94.90
3648;DHT22;1840;48.892;15.312;2024-02-15T11:07:33;12.10;95.50
3648;DHT22;1840;48.892;15.312;2024-02-15T11:10:02;11.90;95.90
3648;DHT22;1840;48.892;15.312;2024-02-15T11:12:34;11.80;95.90
3648;DHT22;1840;48.892;15.312;2024-02-15T11:15:07;11.80;95.90
3648;DHT22;1840;48.892;15.312;2024-02-15T11:17:47;11.70;96.10
3648;DHT22;1840;48.892;15.312;2024-02-15T11:20:51;11.70;96.10
3648;DHT22;1840;48.892;15.312;2024-02-15T11:23:26;11.50;96.10
3648;DHT22;1840;48.892;15.312;2024-02-15T11:25:58;11.70;96.50
3648;DHT22;1840;48.892;15.312;2024-02-15T11:28:39;11.90;96.30
3648;DHT22;1840;48.892;15.312;2024-02-15T11:31:17;12.10;96.10
3648;DHT22;1840;48.892;15.312;2024-02-15T11:37:48;12.20;96.00
3648;DHT22;1840;48.892;15.312;2024-02-15T11:40:19;12.10;96.20
3648;DHT22;1840;48.892;15.312;2024-02-15T11:42:50;12.30;96.40
3648;DHT22;1840;48.892;15.312;2024-02-15T11:45:21;12.20;95.80
3648;DHT22;1840;48.892;15.312;2024-02-15T11:47:53;12.30;96.00
3648;DHT22;1840;48.892;15.312;2024-02-15T11:50:23;12.40;95.80
3648;DHT22;1840;48.892;15.312;2024-02-15T11:52:52;12.10;96.00
3648;DHT22;1840;48.892;15.312;2024-02-15T11:55:32;11.90;96.10
3648;DHT22;1840;48.892;15.312;2024-02-15T11:58:03;11.90;96.00
3648;DHT22;1840;48.892;15.312;2024-02-15T12:00:45;11.70;96.10
3648;DHT22;1840;48.892;15.312;2024-02-15T12:03:31;11.70;96.10
3648;DHT22;1840;48.892;15.312;2024-02-15T12:06:33;11.60;96.20
3648;DHT22;1840;48.892;15.312;2024-02-15T12:09:19;11.90;96.70
3648;DHT22;1840;48.892;15.312;2024-02-15T12:12:06;12.00;96.30
3648;DHT22;1840;48.892;15.312;2024-02-15T12:14:58;11.90;96.30
3648;DHT22;1840;48.892;15.312;2024-02-15T12:17:45;11.90;96.10
3648;DHT22;1840;48.892;15.312;2024-02-15T12:20:31;12.00;96.30
3648;DHT22;1840;48.892;15.312;2024-02-15T12:23:01;12.00;95.90
3648;DHT22;1840;48.892;15.312;2024-02-15T12:25:31;12.20;95.80
3648;DHT22;1840;48.892;15.312;2024-02-15T12:28:01;12.30;95.90
3648;DHT22;1840;48.892;15.312;2024-02-15T12:30:34;12.40;95.50
3648;DHT22;1840;48.892;15.312;2024-02-15T12:33:12;12.30;95.60
3648;DHT22;1840;48.892;15.312;2024-02-15T12:35:47;12.30;95.90
3648;DHT22;1840;48.892;15.312;2024-02-15T12:38:17;12.50;95.90
3648;DHT22;1840;48.892;15.312;2024-02-15T12:40:46;12.20;95.90
3648;DHT22;1840;48.892;15.312;2024-02-15T12:43:15;12.10;95.90
3648;DHT22;1840;48.892;15.312;2024-02-15T12:45:44;12.20;96.30
3648;DHT22;1840;48.892;15.312;2024-02-15T12:48:13;12.30;95.60
3648;DHT22;1840;48.892;15.312;2024-02-15T12:50:43;12.50;95.30
3648;DHT22;1840;48.892;15.312;2024-02-15T12:53:11;12.50;95.50
3648;DHT22;1840;48.892;15.312;2024-02-15T12:55:40;12.60;95.40
3648;DHT22;1840;48.892;15.312;2024-02-15T12:58:13;12.60;95.00
3648;DHT22;1840;48.892;15.312;2024-02-15T13:00:43;12.40;94.90
3648;DHT22;1840;48.892;15.312;2024-02-15T13:03:13;12.40;95.10
3648;DHT22;1840;48.892;15.312;2024-02-15T13:05:42;12.40;95.50
3648;DHT22;1840;48.892;15.312;2024-02-15T13:08:12;12.60;95.60
3648;DHT22;1840;48.892;15.312;2024-02-15T13:10:42;12.80;95.40
3648;DHT22;1840;48.892;15.312;2024-02-15T13:13:11;12.80;95.00
3648;DHT22;1840;48.892;15.312;2024-02-15T13:15:41;12.70;95.20
3648;DHT22;1840;48.892;15.312;2024-02-15T13:18:12;12.80;94.80
3648;DHT22;1840;48.892;15.312;2024-02-15T13:20:43;12.80;95.30
3648;DHT22;1840;48.892;15.312;2024-02-15T13:23:11;12.70;95.10
3648;DHT22;1840;48.892;15.312;2024-02-15T13:25:46;12.60;95.50
3648;DHT22;1840;48.892;15.312;2024-02-15T13:28:15;12.50;95.40
3648;DHT22;1840;48.892;15.312;2024-02-15T13:30:45;12.50;95.40
3648;DHT22;1840;48.892;15.312;2024-02-15T13:33:18;12.40;95.30
3648;DHT22;1840;48.892;15.312;2024-02-15T13:35:47;12.60;95.50
3648;DHT22;1840;48.892;15.312;2024-02-15T13:38:17;12.70;95.10
3648;DHT22;1840;48.892;15.312;2024-02-15T13:40:51;12.60;95.10
3648;DHT22;1840;48.892;15.312;2024-02-15T13:43:23;12.50;95.20
3648;DHT22;1840;48.892;15.312;2024-02-15T13:45:51;12.30;95.30
3648;DHT22;1840;48.892;15.312;2024-02-15T13:48:22;12.20;95.50
3648;DHT22;1840;48.892;15.312;2024-02-15T13:50:52;12.10;96.00
3648;DHT22;1840;48.892;15.312;2024-02-15T13:53:21;12.00;95.90
3648;DHT22;1840;48.892;15.312;2024-02-15T13:55:52;11.80;96.00
3648;DHT22;1840;48.892;15.312;2024-02-15T13:58:20;11.70;96.20
3648;DHT22;1840;48.892;15.312;2024-02-15T14:00:49;11.60;96.50
3648;DHT22;1840;48.892;15.312;2024-02-15T14:03:19;11.60;96.60
3648;DHT22;1840;48.892;15.312;2024-02-15T14:05:50;11.60;96.50
3648;DHT22;1840;48.892;15.312;2024-02-15T14:08:19;11.60;96.80
3648;DHT22;1840;48.892;15.312;2024-02-15T14:10:47;11.60;96.50
3648;DHT22;1840;48.892;15.312;2024-02-15T14:13:16;11.50;96.60
3648;DHT22;1840;48.892;15.312;2024-02-15T14:15:45;11.50;96.70
3648;DHT22;1840;48.892;15.312;2024-02-15T14:18:13;11.50;96.70
3648;DHT22;1840;48.892;15.312;2024-02-15T14:20:44;11.50;96.70
3648;DHT22;1840;48.892;15.312;2024-02-15T14:23:16;11.50;97.00
3648;DHT22;1840;48.892;15.312;2024-02-15T14:25:44;11.40;96.90
3648;DHT22;1840;48.892;15.312;2024-02-15T14:28:13;11.30;97.00
3648;DHT22;1840;48.892;15.312;2024-02-15T14:30:43;11.30;97.30
3648;DHT22;1840;48.892;15.312;2024-02-15T14:33:29;11.30;97.70
3648;DHT22;1840;48.892;15.312;2024-02-15T14:36:02;11.10;97.90
3648;DHT22;1840;48.892;15.312;2024-02-15T14:38:33;11.00;98.10
3648;DHT22;1840;48.892;15.312;2024-02-15T14:41:02;11.10;98.10
3648;DHT22;1840;48.892;15.312;2024-02-15T14:43:34;11.10;98.10
3648;DHT22;1840;48.892;15.312;2024-02-15T14:46:03;10.90;97.90
3648;DHT22;1840;48.892;15.312;2024-02-15T14:48:32;10.80;98.20
3648;DHT22;1840;48.892;15.312;2024-02-15T14:51:02;10.70;98.50
3648;DHT22;1840;48.892;15.312;2024-02-15T14:53:33;10.70;98.70
3648;DHT22;1840;48.892;15.312;2024-02-15T14:56:02;10.70;98.90
3648;DHT22;1840;48.892;15.312;2024-02-15T14:58:32;10.70;98.70
3648;DHT22;1840;48.892;15.312;2024-02-15T15:01:00;10.60;98.90
3648;DHT22;1840;48.892;15.312;2024-02-15T15:03:36;10.60;99.10
3648;DHT22;1840;48.892;15.312;2024-02-15T15:06:07;10.50;99.00
3648;DHT22;1840;48.892;15.312;2024-02-15T15:08:55;10.60;99.20
3648;DHT22;1840;48.892;15.312;2024-02-15T15:11:43;10.60;99.20
3648;DHT22;1840;48.892;15.312;2024-02-15T15:14:31;10.40;99.40
3648;DHT22;1840;48.892;15.312;2024-02-15T15:17:00;10.20;99.90
3648;DHT22;1840;48.892;15.312;2024-02-15T15:19:30;10.00;99.90
3648;DHT22;1840;48.892;15.312;2024-02-15T15:21:59;10.00;99.90
3648;DHT22;1840;48.892;15.312;2024-02-15T15:24:29;9.80;99.90
3648;DHT22;1840;48.892;15.312;2024-02-15T15:26:59;9.70;99.90
3648;DHT22;1840;48.892;15.312;2024-02-15T15:29:27;9.60;99.90
3648;DHT22;1840;48.892;15.312;2024-02-15T15:31:57;9.40;99.90
3648;DHT22;1840;48.892;15.312;2024-02-15T15:34:27;9.40;99.90
3648;DHT22;1840;48.892;15.312;2024-02-15T15:36:55;9.30;99.90
3648;DHT22;1840;48.892;15.312;2024-02-15T15:39:24;9.10;99.90
3648;DHT22;1840;48.892;15.312;2024-02-15T15:41:55;9.20;99.90
3648;DHT22;1840;48.892;15.312;2024-02-15T15:44:23;9.10;99.90
3648;DHT22;1840;48.892;15.312;2024-02-15T15:46:54;9.10;99.90
3648;DHT22;1840;48.892;15.312;2024-02-15T15:49:23;9.10;99.90
3648;DHT22;1840;48.892;15.312;2024-02-15T15:51:52;9.10;99.90
3648;DHT22;1840;48.892;15.312;2024-02-15T15:54:21;9.00;99.90
3648;DHT22;1840;48.892;15.312;2024-02-15T15:56:50;9.00;99.90
3648;DHT22;1840;48.892;15.312;2024-02-15T15:59:21;9.00;99.90
3648;DHT22;1840;48.892;15.312;2024-02-15T16:01:51;9.10;99.90
3648;DHT22;1840;48.892;15.312;2024-02-15T16:04:19;9.10;99.90
3648;DHT22;1840;48.892;15.312;2024-02-15T16:06:49;9.00;99.90
3648;DHT22;1840;48.892;15.312;2024-02-15T16:09:20;9.00;99.90
3648;DHT22;1840;48.892;15.312;2024-02-15T16:11:48;8.90;99.90
3648;DHT22;1840;48.892;15.312;2024-02-15T16:14:21;8.80;99.90
3648;DHT22;1840;48.892;15.312;2024-02-15T16:16:50;8.70;99.90
3648;DHT22;1840;48.892;15.312;2024-02-15T16:19:19;8.60;99.90
3648;DHT22;1840;48.892;15.312;2024-02-15T16:21:47;8.50;99.90